Time;durP1;ratioP1;P1;durP2;ratioP2;P2;SDS_P1;SDS_P2;PMS_P1;PMS_P2;Temp;Humidity;BMP_temperature;BMP_pressure;BME280_temperature;BME280_humidity;BME280_pressure;Samples;Min_cycle;Max_cycle;Signal;HPM_P1;HPM_P2
2022/03/09 00:00:03;;;;;;;0.50;0.50;;;;;;;4.57;52.87;102103.75;674817;29;21515;-68
2022/03/09 00:00:25;;;;;;;0.43;0.43;;;;;;;4.58;52.94;102100.13;672895;29;93064;-69
2022/03/09 00:00:46;;;;;;;0.60;0.60;;;;;;;4.60;52.90;102095.53;674838;29;23441;-69
2022/03/09 00:01:07;;;;;;;0.60;0.60;;;;;;;4.64;52.87;102105.06;674415;29;23618;-68
2022/03/09 00:01:29;;;;;;;0.60;0.60;;;;;;;4.68;52.85;102092.31;674219;29;21416;-69
2022/03/09 00:01:52;;;;;;;0.50;0.50;;;;;;;4.71;52.66;102096.63;674354;29;45087;-69
2022/03/09 00:02:13;;;;;;;0.50;0.50;;;;;;;4.73;52.61;102095.53;673213;29;69441;-69
2022/03/09 00:02:34;;;;;;;0.43;0.43;;;;;;;4.75;52.62;102096.31;674911;29;22420;-69
2022/03/09 00:02:55;;;;;;;0.50;0.50;;;;;;;4.76;52.58;102089.97;674461;29;22387;-68
2022/03/09 00:03:17;;;;;;;0.60;0.60;;;;;;;4.78;52.53;102096.09;674956;29;22444;-69
2022/03/09 00:03:38;;;;;;;0.60;0.60;;;;;;;4.77;52.29;102097.06;674343;29;46405;-68
2022/03/09 00:04:00;;;;;;;0.57;0.57;;;;;;;4.76;52.31;102094.47;675878;29;959;-68
2022/03/09 00:04:21;;;;;;;0.50;0.50;;;;;;;4.74;52.25;102099.09;674611;29;46330;-68
2022/03/09 00:04:43;;;;;;;0.47;0.47;;;;;;;4.73;52.17;102100.88;675014;29;23476;-68
2022/03/09 00:05:05;;;;;;;0.40;0.40;;;;;;;4.73;52.22;102095.53;673943;29;46346;-68
2022/03/09 00:05:26;;;;;;;0.60;0.60;;;;;;;4.73;52.23;102100.88;674808;29;23393;-69
2022/03/09 00:05:47;;;;;;;0.60;0.60;;;;;;;4.76;52.28;102097.16;673604;29;45265;-68
2022/03/09 00:06:09;;;;;;;0.50;0.50;;;;;;;4.76;52.28;102100.69;674976;29;22415;-69
2022/03/09 00:06:30;;;;;;;0.40;0.40;;;;;;;4.77;52.22;102094.38;673479;29;46658;-69
2022/03/09 00:06:51;;;;;;;0.40;0.40;;;;;;;4.78;52.13;102096.09;675318;29;23444;-69
2022/03/09 00:07:12;;;;;;;0.40;0.40;;;;;;;4.79;52.07;102096.94;675146;29;21547;-68
2022/03/09 00:07:35;;;;;;;0.55;0.55;;;;;;;4.80;52.22;102096.00;675098;29;22294;-68
2022/03/09 00:07:56;;;;;;;0.60;0.60;;;;;;;4.81;52.18;102095.00;674130;29;44933;-68
2022/03/09 00:08:17;;;;;;;0.50;0.50;;;;;;;4.83;52.12;102095.78;674984;29;22456;-67
2022/03/09 00:08:38;;;;;;;0.50;0.50;;;;;;;4.81;52.14;102103.03;674073;29;46434;-67
2022/03/09 00:08:59;;;;;;;0.50;0.50;;;;;;;4.80;52.10;102101.34;674930;29;23425;-68
2022/03/09 00:09:21;;;;;;;0.40;0.40;;;;;;;4.77;52.08;102099.72;674882;29;23505;-68
2022/03/09 00:09:42;;;;;;;0.40;0.40;;;;;;;4.74;52.29;102099.09;671258;29;44881;-67
2022/03/09 00:10:04;;;;;;;0.50;0.50;;;;;;;4.72;52.25;102099.19;672407;29;22414;-68
2022/03/09 00:10:26;;;;;;;0.50;0.50;;;;;;;4.70;52.41;102101.09;672376;29;42016;-68
2022/03/09 00:10:48;;;;;;;0.50;0.50;;;;;;;4.69;52.34;102097.56;671615;29;46349;-68
2022/03/09 00:11:09;;;;;;;0.40;0.40;;;;;;;4.70;52.37;102098.41;672404;29;21190;-67
2022/03/09 00:11:30;;;;;;;0.40;0.40;;;;;;;4.67;52.50;102093.28;672229;29;25408;-68
2022/03/09 00:11:51;;;;;;;0.40;0.40;;;;;;;4.67;52.44;102096.84;674253;29;44424;-67
2022/03/09 00:12:13;;;;;;;0.50;0.50;;;;;;;4.66;52.41;102095.09;674987;29;22350;-67
2022/03/09 00:12:34;;;;;;;0.60;0.60;;;;;;;4.66;52.35;102097.78;673561;29;46609;-68
2022/03/09 00:12:56;;;;;;;0.55;0.55;;;;;;;4.64;52.57;102096.16;674697;29;22588;-68
2022/03/09 00:13:18;;;;;;;0.50;0.50;;;;;;;4.64;52.45;102104.19;674774;29;22473;-68
2022/03/09 00:13:39;;;;;;;0.40;0.40;;;;;;;4.63;52.50;102102.50;673504;29;69471;-68
2022/03/09 00:14:08;;;;;;;0.40;0.40;;;;;;;4.60;52.51;102102.72;673622;29;61297;-67
2022/03/09 00:14:30;;;;;;;0.40;0.40;;;;;;;4.58;52.49;102096.63;675924;29;5565;-68
2022/03/09 00:14:52;;;;;;;0.50;0.50;;;;;;;4.61;52.67;102099.09;675086;29;23286;-67
2022/03/09 00:15:13;;;;;;;0.50;0.50;;;;;;;4.61;52.58;102097.25;673640;29;68890;-66
2022/03/09 00:15:34;;;;;;;0.50;0.50;;;;;;;4.64;52.62;102096.16;671657;29;43894;-68
2022/03/09 00:15:55;;;;;;;0.50;0.50;;;;;;;4.63;52.46;102098.00;672245;29;23426;-68
2022/03/09 00:16:17;;;;;;;0.40;0.40;;;;;;;4.64;52.47;102105.06;672250;29;22408;-67
2022/03/09 00:16:39;;;;;;;0.40;0.40;;;;;;;4.66;52.45;102091.59;671364;29;23487;-69
2022/03/09 00:17:01;;;;;;;0.60;0.60;;;;;;;4.69;52.49;102096.72;671584;29;45248;-67
2022/03/09 00:17:22;;;;;;;0.60;0.60;;;;;;;4.68;52.46;102097.69;668647;29;66290;-68
2022/03/09 00:17:44;;;;;;;0.50;0.50;;;;;;;4.68;52.22;102093.16;672570;29;21569;-68
2022/03/09 00:18:05;;;;;;;0.50;0.50;;;;;;;4.71;52.30;102093.94;669102;29;46282;-67
2022/03/09 00:18:26;;;;;;;0.45;0.45;;;;;;;4.74;52.27;102099.09;669849;29;22396;-66
2022/03/09 00:18:47;;;;;;;0.40;0.40;;;;;;;4.73;52.21;102095.53;670315;29;8546;-68
2022/03/09 00:19:08;;;;;;;0.50;0.50;;;;;;;4.74;52.23;102096.41;670195;29;21529;-67
2022/03/09 00:19:30;;;;;;;0.60;0.60;;;;;;;4.74;52.16;102101.78;672310;29;22279;-67
2022/03/09 00:19:52;;;;;;;0.55;0.55;;;;;;;4.74;52.00;102101.78;671568;29;44579;-68
2022/03/09 00:20:13;;;;;;;0.60;0.60;;;;;;;4.74;52.03;102101.78;675002;29;21520;-68
2022/03/09 00:20:35;;;;;;;0.50;0.50;;;;;;;4.73;51.97;102092.84;675012;29;3595;-67
2022/03/09 00:20:56;;;;;;;0.40;0.40;;;;;;;4.72;52.09;102093.84;673925;29;44393;-68
2022/03/09 00:21:23;;;;;;;0.40;0.40;;;;;;;4.72;52.01;102095.63;674709;29;22409;-68
2022/03/09 00:21:53;;;;;;;0.50;0.50;;;;;;;4.74;52.03;102096.41;669393;29;156704;-68
2022/03/09 00:22:15;;;;;;;0.50;0.50;;;;;;;4.73;51.96;102095.53;670521;29;137786;-67
2022/03/09 00:22:37;;;;;;;0.50;0.50;;;;;;;4.75;51.93;102092.75;673687;29;69208;-68
2022/03/09 00:22:58;;;;;;;0.40;0.40;;;;;;;4.75;51.90;102098.09;675025;29;22415;-68
2022/03/09 00:23:19;;;;;;;0.40;0.40;;;;;;;4.74;51.90;102096.41;675269;29;22386;-67
2022/03/09 00:23:41;;;;;;;0.50;0.50;;;;;;;4.75;51.93;102100.78;675276;29;24317;-68
2022/03/09 00:24:04;;;;;;;0.50;0.50;;;;;;;4.75;52.02;102095.44;672420;29;92301;-68
2022/03/09 00:24:25;;;;;;;0.60;0.60;;;;;;;4.75;51.84;102098.09;674468;29;46362;-68
2022/03/09 00:24:48;;;;;;;0.50;0.50;;;;;;;4.74;51.88;102088.38;674694;29;22418;-68
2022/03/09 00:25:09;;;;;;;0.40;0.40;;;;;;;4.73;51.81;102095.53;673921;29;46322;-67
2022/03/09 00:25:30;;;;;;;0.40;0.40;;;;;;;4.71;51.71;102096.63;674282;29;45339;-68
2022/03/09 00:25:51;;;;;;;0.50;0.50;;;;;;;4.68;51.79;102095.00;675109;29;23475;-68
2022/03/09 00:26:13;;;;;;;0.60;0.60;;;;;;;4.66;51.73;102094.25;674962;29;22371;-68
2022/03/09 00:26:34;;;;;;;0.60;0.60;;;;;;;4.61;51.97;102089.22;673908;29;46300;-68
2022/03/09 00:26:55;;;;;;;0.50;0.50;;;;;;;4.57;52.07;102090.38;675178;29;22392;-68
2022/03/09 00:27:17;;;;;;;0.50;0.50;;;;;;;4.57;52.16;102087.72;671771;29;22428;-68
2022/03/09 00:27:39;;;;;;;0.40;0.40;;;;;;;4.57;52.20;102093.06;672158;29;22442;-68
2022/03/09 00:28:00;;;;;;;0.45;0.45;;;;;;;4.56;52.28;102090.50;669111;29;46386;-68
2022/03/09 00:28:21;;;;;;;0.60;0.60;;;;;;;4.53;52.24;102094.25;670873;29;1323;-68
2022/03/09 00:28:42;;;;;;;0.50;0.50;;;;;;;4.51;52.33;102093.47;669767;29;22527;-68
2022/03/09 00:29:05;;;;;;;0.50;0.50;;;;;;;4.51;52.39;102093.47;669390;29;46289;-67
2022/03/09 00:29:28;;;;;;;0.40;0.40;;;;;;;4.50;52.32;102092.63;669436;29;115761;-66
2022/03/09 00:29:50;;;;;;;0.40;0.40;;;;;;;4.48;52.39;102099.03;672613;29;23437;-68
2022/03/09 00:30:11;;;;;;;0.40;0.40;;;;;;;4.46;52.47;102092.94;675146;29;20069;-67
2022/03/09 00:30:35;;;;;;;0.55;0.55;;;;;;;4.44;52.58;102093.03;674415;29;23436;-68
2022/03/09 00:30:56;;;;;;;0.50;0.50;;;;;;;4.44;52.44;102094.88;672707;29;92336;-68
2022/03/09 00:31:18;;;;;;;0.50;0.50;;;;;;;4.44;52.50;102093.03;674116;29;44426;-68
2022/03/09 00:31:40;;;;;;;0.50;0.50;;;;;;;4.43;52.57;102094.00;674160;29;21057;-67
2022/03/09 00:32:06;;;;;;;0.40;0.40;;;;;;;4.42;52.55;102097.66;674432;29;46411;-67
2022/03/09 00:32:28;;;;;;;0.50;0.50;;;;;;;4.42;52.63;102097.66;670575;29;137626;-68
2022/03/09 00:32:49;;;;;;;0.60;0.60;;;;;;;4.40;52.56;102096.88;674080;29;45283;-67
2022/03/09 00:33:11;;;;;;;0.60;0.60;;;;;;;4.37;52.61;102093.56;671586;29;43391;-68
2022/03/09 00:33:32;;;;;;;0.50;0.50;;;;;;;4.37;52.62;102096.22;671276;29;46350;-67
2022/03/09 00:33:56;;;;;;;0.40;0.40;;;;;;;4.37;52.58;102091.72;672516;29;23497;-68
2022/03/09 00:34:19;;;;;;;0.40;0.40;;;;;;;4.35;52.75;102093.66;669072;29;113056;-68
2022/03/09 00:34:41;;;;;;;0.50;0.50;;;;;;;4.36;52.76;102089.16;672403;29;21228;-68
2022/03/09 00:35:03;;;;;;;0.50;0.50;;;;;;;4.36;52.71;102094.50;671962;29;67665;-68
2022/03/09 00:35:26;;;;;;;0.50;0.50;;;;;;;4.36;52.66;102097.19;675051;29;21587;-68
2022/03/09 00:35:47;;;;;;;0.50;0.50;;;;;;;4.33;52.59;102090.25;673596;29;69470;-68
2022/03/09 00:36:08;;;;;;;0.40;0.40;;;;;;;4.32;52.92;102093.88;674798;29;21507;-68
2022/03/09 00:36:30;;;;;;;0.40;0.40;;;;;;;4.32;52.72;102093.88;674306;29;22341;-67
2022/03/09 00:36:51;;;;;;;0.50;0.50;;;;;;;4.32;52.76;102092.03;674141;29;44292;-67
2022/03/09 00:37:12;;;;;;;0.60;0.60;;;;;;;4.31;52.78;102097.50;673995;29;47359;-68
2022/03/09 00:37:33;;;;;;;0.60;0.60;;;;;;;4.30;52.91;102083.25;674011;29;44444;-68
2022/03/09 00:37:55;;;;;;;0.50;0.50;;;;;;;4.31;52.87;102097.50;672210;29;23445;-68
2022/03/09 00:38:16;;;;;;;0.50;0.50;;;;;;;4.29;52.86;102094.06;671462;29;47782;-68
2022/03/09 00:38:37;;;;;;;0.40;0.40;;;;;;;4.28;52.82;102095.06;672161;29;23423;-67
2022/03/09 00:38:58;;;;;;;0.40;0.40;;;;;;;4.26;52.88;102092.47;672429;29;18037;-68
2022/03/09 00:39:21;;;;;;;0.60;0.60;;;;;;;4.26;52.91;102100.50;672197;29;22540;-68
2022/03/09 00:39:42;;;;;;;0.60;0.60;;;;;;;4.24;52.80;102094.38;671402;29;46365;-68
2022/03/09 00:40:04;;;;;;;0.60;0.60;;;;;;;4.24;52.84;102101.56;671885;29;23267;-68
2022/03/09 00:40:25;;;;;;;0.50;0.50;;;;;;;4.22;53.00;102093.63;671420;29;46420;-67
2022/03/09 00:40:49;;;;;;;0.50;0.50;;;;;;;4.21;52.95;102093.72;669306;29;17055;-68
2022/03/09 00:41:11;;;;;;;0.40;0.40;;;;;;;4.18;53.14;102094.78;667472;29;92703;-68
2022/03/09 00:41:32;;;;;;;0.43;0.43;;;;;;;4.20;53.16;102094.69;669154;29;22472;-68
2022/03/09 00:41:53;;;;;;;0.60;0.60;;;;;;;4.20;53.13;102092.00;670814;29;21491;-68
2022/03/09 00:42:15;;;;;;;0.60;0.60;;;;;;;4.15;53.00;102093.19;672511;29;22409;-68
2022/03/09 00:42:37;;;;;;;0.60;0.60;;;;;;;4.14;53.08;102087.94;672621;29;47286;-67
2022/03/09 00:42:58;;;;;;;0.55;0.55;;;;;;;4.15;52.95;102095.88;673584;29;67452;-69
2022/03/09 00:43:20;;;;;;;0.45;0.45;;;;;;;4.19;53.09;102098.34;674627;29;23655;-68
2022/03/09 00:43:42;;;;;;;0.40;0.40;;;;;;;4.18;53.13;102100.13;674912;29;23458;-68
2022/03/09 00:44:04;;;;;;;0.52;0.52;;;;;;;4.20;53.29;102090.22;673981;29;45255;-68
2022/03/09 00:44:25;;;;;;;0.60;0.60;;;;;;;4.22;52.95;102093.63;674269;29;45699;-68
2022/03/09 00:44:46;;;;;;;0.50;0.50;;;;;;;4.23;52.93;102089.13;675299;29;16728;-68
2022/03/09 00:45:09;;;;;;;0.60;0.60;;;;;;;4.23;52.95;102087.34;675018;29;22403;-67
2022/03/09 00:45:33;;;;;;;0.50;0.50;;;;;;;4.24;52.77;102091.69;673286;29;69668;-68
2022/03/09 00:45:54;;;;;;;0.50;0.50;;;;;;;4.27;52.81;102087.97;672472;29;92282;-68
2022/03/09 00:46:15;;;;;;;0.50;0.50;;;;;;;4.28;52.88;102093.22;674693;29;21563;-67
2022/03/09 00:46:37;;;;;;;0.60;0.60;;;;;;;4.29;52.86;102089.56;674471;29;22419;-68
2022/03/09 00:46:58;;;;;;;0.60;0.60;;;;;;;4.31;52.73;102086.78;673433;29;68445;-68
2022/03/09 00:47:21;;;;;;;0.50;0.50;;;;;;;4.31;52.69;102090.34;674000;29;46495;-68
2022/03/09 00:47:43;;;;;;;0.50;0.50;;;;;;;4.29;52.58;102086.88;673181;29;69341;-68
2022/03/09 00:48:04;;;;;;;0.50;0.50;;;;;;;4.26;52.53;102089.81;674019;29;44417;-68
2022/03/09 00:48:25;;;;;;;0.50;0.50;;;;;;;4.24;52.68;102090.84;672432;29;1543;-67
2022/03/09 00:48:47;;;;;;;0.55;0.55;;;;;;;4.24;52.63;102099.72;671061;29;46420;-67
2022/03/09 00:49:08;;;;;;;0.60;0.60;;;;;;;4.26;52.63;102095.16;672409;29;16122;-68
2022/03/09 00:49:31;;;;;;;0.60;0.60;;;;;;;4.22;52.65;102092.78;671842;29;23498;-67
2022/03/09 00:49:52;;;;;;;0.50;0.50;;;;;;;4.20;52.60;102083.97;670198;29;69332;-68
2022/03/09 00:50:13;;;;;;;0.50;0.50;;;;;;;4.15;52.70;102090.50;672175;29;20846;-68
2022/03/09 00:50:34;;;;;;;0.40;0.40;;;;;;;4.13;52.70;102088.88;674779;29;23407;-68
2022/03/09 00:51:02;;;;;;;0.50;0.50;;;;;;;4.09;52.78;102090.03;675223;29;13650;-68
2022/03/09 00:51:23;;;;;;;0.60;0.60;;;;;;;4.08;52.88;102091.03;671173;29;115701;-68
2022/03/09 00:51:45;;;;;;;0.60;0.60;;;;;;;4.05;53.02;102093.91;673985;29;46553;-68
2022/03/09 00:52:06;;;;;;;0.60;0.60;;;;;;;4.01;53.08;102087.88;674606;29;22386;-68
2022/03/09 00:52:28;;;;;;;0.50;0.50;;;;;;;3.99;53.14;102091.63;674996;29;21552;-68
2022/03/09 00:52:49;;;;;;;0.50;0.50;;;;;;;3.95;53.21;102097.16;673989;29;45949;-68
2022/03/09 00:53:10;;;;;;;0.50;0.50;;;;;;;3.94;53.17;102090.09;674832;29;23695;-68
2022/03/09 00:53:31;;;;;;;0.70;0.70;;;;;;;3.97;53.38;102089.91;674874;29;22168;-68
2022/03/09 00:53:53;;;;;;;0.60;0.60;;;;;;;3.99;53.40;102089.81;675053;29;23491;-67
2022/03/09 00:54:14;;;;;;;0.60;0.60;;;;;;;4.02;53.25;102097.63;673598;29;46341;-68
2022/03/09 00:54:36;;;;;;;0.60;0.60;;;;;;;4.05;53.28;102094.75;674710;29;22410;-67
2022/03/09 00:54:57;;;;;;;0.50;0.50;;;;;;;4.07;53.23;102094.66;675023;29;23546;-68
2022/03/09 00:55:19;;;;;;;0.40;0.40;;;;;;;4.08;53.25;102086.53;674149;29;47166;-67
2022/03/09 00:55:40;;;;;;;0.50;0.50;;;;;;;4.08;53.21;102094.53;674139;29;46277;-67
2022/03/09 00:56:01;;;;;;;0.70;0.70;;;;;;;4.07;53.11;102098.16;675045;29;22246;-68
2022/03/09 00:56:22;;;;;;;0.60;0.60;;;;;;;4.09;53.10;102093.59;674874;29;4210;-68
2022/03/09 00:56:45;;;;;;;0.50;0.50;;;;;;;4.11;53.12;102093.50;674710;29;44431;-67
2022/03/09 00:57:06;;;;;;;0.50;0.50;;;;;;;4.13;53.12;102091.56;674403;29;32077;-67
2022/03/09 00:57:28;;;;;;;0.50;0.50;;;;;;;4.15;52.94;102095.00;674812;29;23405;-68
2022/03/09 00:57:49;;;;;;;0.40;0.40;;;;;;;4.16;52.90;102099.38;675124;29;21544;-68
2022/03/09 00:58:10;;;;;;;0.57;0.57;;;;;;;4.19;53.01;102095.66;675116;29;22402;-67
2022/03/09 00:58:32;;;;;;;0.60;0.60;;;;;;;4.21;52.94;102099.09;674793;29;23467;-68
2022/03/09 00:58:53;;;;;;;0.60;0.60;;;;;;;4.23;52.81;102098.03;673445;29;67424;-68
2022/03/09 00:59:14;;;;;;;0.60;0.60;;;;;;;4.26;52.77;102096.94;674904;29;23315;-67
2022/03/09 00:59:35;;;;;;;0.50;0.50;;;;;;;4.24;52.55;102097.06;674750;29;22382;-67
2022/03/09 00:59:56;;;;;;;0.50;0.50;;;;;;;4.22;52.54;102093.63;674912;29;22384;-67
2022/03/09 01:00:18;;;;;;;0.45;0.45;;;;;;;4.20;52.57;102103.59;674915;29;24188;-68
2022/03/09 01:00:42;;;;;;;0.63;0.63;;;;;;;4.19;52.52;102101.00;673857;29;47332;-68
2022/03/09 01:01:03;;;;;;;0.68;0.68;;;;;;;4.17;52.62;102098.44;672167;29;92361;-68
2022/03/09 01:01:25;;;;;;;0.60;0.60;;;;;;;4.15;52.58;102103.00;674092;29;24491;-67
2022/03/09 01:01:47;;;;;;;0.50;0.50;;;;;;;4.13;52.43;102100.44;674745;29;21356;-67
2022/03/09 01:02:08;;;;;;;0.40;0.40;;;;;;;4.15;52.69;102103.00;672177;29;21228;-67
2022/03/09 01:02:30;;;;;;;0.40;0.40;;;;;;;4.13;52.71;102100.44;671467;29;44385;-68
2022/03/09 01:02:51;;;;;;;0.50;0.50;;;;;;;4.12;52.64;102098.75;670923;29;41535;-67
2022/03/09 01:03:13;;;;;;;0.60;0.60;;;;;;;4.11;52.69;102096.16;669054;29;22550;-68
2022/03/09 01:03:34;;;;;;;0.50;0.50;;;;;;;4.08;52.80;102094.53;668896;29;44412;-68
2022/03/09 01:03:56;;;;;;;0.50;0.50;;;;;;;4.05;52.85;102097.41;670362;29;951;-68
2022/03/09 01:04:17;;;;;;;0.50;0.50;;;;;;;4.07;52.92;102100.84;672708;29;1530;-68
2022/03/09 01:04:39;;;;;;;0.50;0.50;;;;;;;4.04;52.96;102092.16;669566;29;21984;-68
2022/03/09 01:05:00;;;;;;;0.40;0.40;;;;;;;4.03;52.99;102101.13;668713;29;47416;-67
2022/03/09 01:05:21;;;;;;;0.50;0.50;;;;;;;3.99;53.01;102095.16;672267;29;23912;-68
2022/03/09 01:05:42;;;;;;;0.57;0.57;;;;;;;3.96;53.11;102093.53;671946;29;22355;-67
2022/03/09 01:06:05;;;;;;;0.50;0.50;;;;;;;3.94;53.14;102098.13;671410;29;45430;-68
2022/03/09 01:06:26;;;;;;;0.50;0.50;;;;;;;3.95;53.20;102099.84;670222;29;69308;-67
2022/03/09 01:06:48;;;;;;;0.40;0.40;;;;;;;3.97;53.29;102102.41;675308;29;21547;-68
2022/03/09 01:07:09;;;;;;;0.50;0.50;;;;;;;3.99;53.15;102107.66;674650;29;21543;-67
2022/03/09 01:07:30;;;;;;;0.50;0.50;;;;;;;3.98;53.23;102096.09;673802;29;46412;-67
2022/03/09 01:07:52;;;;;;;0.60;0.60;;;;;;;3.98;53.04;102098.78;673573;29;46385;-67
2022/03/09 01:08:13;;;;;;;0.60;0.60;;;;;;;3.99;53.11;102107.66;674067;29;44253;-68
2022/03/09 01:08:34;;;;;;;0.55;0.55;;;;;;;3.96;52.99;102100.69;674674;29;22394;-68
2022/03/09 01:08:57;;;;;;;0.50;0.50;;;;;;;3.95;53.01;102104.34;675065;29;22395;-68
2022/03/09 01:09:19;;;;;;;0.50;0.50;;;;;;;3.95;53.13;102104.34;673168;29;66936;-67
2022/03/09 01:09:40;;;;;;;0.40;0.40;;;;;;;3.94;53.23;102099.94;673278;29;44416;-67
2022/03/09 01:10:01;;;;;;;0.50;0.50;;;;;;;3.93;53.27;102099.09;674698;29;22401;-68
2022/03/09 01:10:23;;;;;;;0.60;0.60;;;;;;;3.94;53.25;102103.47;674661;29;23508;-67
2022/03/09 01:10:45;;;;;;;0.60;0.60;;;;;;;3.96;53.34;102101.53;674945;29;23155;-68
2022/03/09 01:11:06;;;;;;;0.60;0.60;;;;;;;3.96;53.35;102098.88;674884;29;25530;-67
2022/03/09 01:11:27;;;;;;;0.50;0.50;;;;;;;3.97;53.31;102100.59;673655;29;21541;-67
2022/03/09 01:11:48;;;;;;;0.50;0.50;;;;;;;3.99;53.17;102099.66;674658;29;23442;-68
2022/03/09 01:12:10;;;;;;;0.40;0.40;;;;;;;3.99;53.08;102092.47;675039;29;1618;-68
2022/03/09 01:12:32;;;;;;;0.52;0.52;;;;;;;4.02;53.13;102094.09;674157;29;45307;-67
2022/03/09 01:12:53;;;;;;;0.60;0.60;;;;;;;4.02;53.17;102100.28;674428;29;44218;-68
2022/03/09 01:13:14;;;;;;;0.60;0.60;;;;;;;4.03;53.11;102093.13;675007;29;22393;-67
2022/03/09 01:13:36;;;;;;;0.60;0.60;;;;;;;4.04;53.08;102095.69;675325;29;21566;-67
2022/03/09 01:13:57;;;;;;;0.50;0.50;;;;;;;4.06;53.19;102092.91;671239;29;48331;-68
2022/03/09 01:14:18;;;;;;;0.50;0.50;;;;;;;4.06;53.09;102103.63;672540;29;24281;-68
2022/03/09 01:14:40;;;;;;;0.50;0.50;;;;;;;4.07;53.01;102094.66;672276;29;23607;-68
2022/03/09 01:15:02;;;;;;;0.70;0.70;;;;;;;4.08;53.03;102097.22;671232;29;46200;-68
2022/03/09 01:15:24;;;;;;;0.70;0.70;;;;;;;4.06;52.98;102092.91;671957;29;46304;-67
2022/03/09 01:15:45;;;;;;;0.60;0.60;;;;;;;4.06;52.83;102093.78;672936;29;23527;-68
2022/03/09 01:16:07;;;;;;;0.60;0.60;;;;;;;4.05;52.78;102097.41;675215;29;21512;-67
2022/03/09 01:16:28;;;;;;;0.60;0.60;;;;;;;4.03;52.80;102093.13;672188;29;69575;-68
2022/03/09 01:16:49;;;;;;;0.50;0.50;;;;;;;4.00;52.86;102096.88;675228;29;22390;-68
2022/03/09 01:17:11;;;;;;;0.50;0.50;;;;;;;3.97;52.84;102087.22;674662;29;22542;-67
2022/03/09 01:17:34;;;;;;;0.70;0.70;;;;;;;3.94;52.84;102086.59;674779;29;23487;-68
2022/03/09 01:17:56;;;;;;;0.60;0.60;;;;;;;3.94;52.94;102091.94;672939;29;69545;-67
2022/03/09 01:18:17;;;;;;;0.60;0.60;;;;;;;3.93;53.02;102091.09;673753;29;46388;-67
2022/03/09 01:18:38;;;;;;;0.60;0.60;;;;;;;3.94;53.09;102090.09;674901;29;22209;-68
2022/03/09 01:18:59;;;;;;;0.60;0.60;;;;;;;3.96;53.18;102093.53;675205;29;22467;-67
2022/03/09 01:19:20;;;;;;;0.50;0.50;;;;;;;3.98;53.30;102096.09;674816;29;22487;-68
2022/03/09 01:19:42;;;;;;;0.60;0.60;;;;;;;4.00;53.13;102091.53;673724;29;46374;-68
2022/03/09 01:20:05;;;;;;;0.70;0.70;;;;;;;4.01;53.02;102097.72;673655;29;27749;-68
2022/03/09 01:20:26;;;;;;;0.70;0.70;;;;;;;4.03;52.90;102091.31;675301;29;1683;-68
2022/03/09 01:20:58;;;;;;;0.60;0.60;;;;;;;4.01;52.87;102090.53;672382;29;95178;-68
2022/03/09 01:21:20;;;;;;;0.60;0.60;;;;;;;4.00;52.72;102090.66;673613;29;22398;-68
2022/03/09 01:21:41;;;;;;;0.60;0.60;;;;;;;3.97;52.89;102089.06;672082;29;89123;-68
2022/03/09 01:22:03;;;;;;;0.60;0.60;;;;;;;3.93;52.94;102088.41;671921;29;20894;-67
2022/03/09 01:22:24;;;;;;;0.70;0.70;;;;;;;3.94;52.97;102087.44;671846;29;22395;-67
2022/03/09 01:22:46;;;;;;;0.65;0.65;;;;;;;3.95;53.01;102085.63;672458;29;21526;-67
2022/03/09 01:23:07;;;;;;;0.60;0.60;;;;;;;3.95;53.10;102085.63;671010;29;44461;-68
2022/03/09 01:23:28;;;;;;;0.60;0.60;;;;;;;3.97;53.08;102092.56;670179;29;22437;-68
2022/03/09 01:23:49;;;;;;;0.60;0.60;;;;;;;3.96;53.10;102085.50;669305;29;44405;-68
2022/03/09 01:24:11;;;;;;;0.60;0.60;;;;;;;3.99;53.16;102089.81;672545;29;20847;-68
2022/03/09 01:24:32;;;;;;;0.60;0.60;;;;;;;4.01;53.09;102087.88;674051;29;44315;-67
2022/03/09 01:24:53;;;;;;;0.70;0.70;;;;;;;4.01;53.10;102085.19;675875;29;1356;-68
2022/03/09 01:25:14;;;;;;;0.70;0.70;;;;;;;3.99;53.05;102089.81;674165;29;22369;-67
2022/03/09 01:25:36;;;;;;;0.70;0.70;;;;;;;4.00;53.02;102087.97;675270;29;23169;-68
2022/03/09 01:25:58;;;;;;;0.60;0.60;;;;;;;4.02;52.98;102086.06;673910;29;46435;-68
2022/03/09 01:26:19;;;;;;;0.60;0.60;;;;;;;4.01;53.07;102090.53;674326;29;23397;-68
2022/03/09 01:26:42;;;;;;;0.50;0.50;;;;;;;4.02;53.10;102086.94;673549;29;46318;-68
2022/03/09 01:27:03;;;;;;;0.70;0.70;;;;;;;4.03;53.04;102088.66;671404;29;46591;-67
2022/03/09 01:27:24;;;;;;;0.70;0.70;;;;;;;4.03;53.05;102087.78;672063;29;22395;-68
2022/03/09 01:27:45;;;;;;;0.70;0.70;;;;;;;4.02;53.11;102081.56;672320;29;23509;-68
2022/03/09 01:28:06;;;;;;;0.70;0.70;;;;;;;4.02;53.05;102094.94;672082;29;21534;-67
2022/03/09 01:28:28;;;;;;;0.60;0.60;;;;;;;4.02;52.97;102086.94;671875;29;22402;-68
2022/03/09 01:28:49;;;;;;;0.50;0.50;;;;;;;4.02;52.96;102086.94;672047;29;28521;-67
2022/03/09 01:29:11;;;;;;;0.50;0.50;;;;;;;4.01;52.97;102087.88;674699;29;23270;-67
2022/03/09 01:29:32;;;;;;;0.70;0.70;;;;;;;4.02;53.04;102088.75;673754;29;46337;-68
2022/03/09 01:29:54;;;;;;;0.70;0.70;;;;;;;4.02;53.05;102089.59;674825;29;21563;-67
2022/03/09 01:30:15;;;;;;;0.60;0.60;;;;;;;4.03;53.09;102087.78;673941;29;43666;-68
2022/03/09 01:30:36;;;;;;;0.63;0.63;;;;;;;4.02;53.01;102092.28;674003;29;44379;-68
2022/03/09 01:30:57;;;;;;;0.60;0.60;;;;;;;3.99;53.05;102086.28;674518;29;22394;-67
2022/03/09 01:31:20;;;;;;;0.50;0.50;;;;;;;3.97;53.17;102086.38;674800;29;22405;-68
2022/03/09 01:31:41;;;;;;;0.55;0.55;;;;;;;3.95;53.08;102083.81;672253;29;66438;-68
2022/03/09 01:32:02;;;;;;;0.80;0.80;;;;;;;3.93;53.08;102085.72;674637;29;22238;-68
2022/03/09 01:32:24;;;;;;;0.80;0.80;;;;;;;3.92;53.07;102084.00;673616;29;45364;-68
2022/03/09 01:32:48;;;;;;;0.70;0.70;;;;;;;3.91;53.13;102082.28;675212;29;22372;-68
2022/03/09 01:33:09;;;;;;;0.60;0.60;;;;;;;3.91;53.30;102084.97;672086;29;92223;-68
2022/03/09 01:33:31;;;;;;;0.50;0.50;;;;;;;3.90;53.07;102080.59;674181;29;46267;-69
2022/03/09 01:33:52;;;;;;;0.50;0.50;;;;;;;3.91;53.30;102078.75;675032;29;24336;-67
2022/03/09 01:34:14;;;;;;;0.63;0.63;;;;;;;3.91;53.40;102092.97;674754;29;23469;-67
2022/03/09 01:34:35;;;;;;;0.70;0.70;;;;;;;3.94;53.35;102091.94;674097;29;46394;-67
2022/03/09 01:34:56;;;;;;;0.60;0.60;;;;;;;3.95;53.40;102088.31;675028;29;21514;-68
2022/03/09 01:35:17;;;;;;;0.55;0.55;;;;;;;3.94;53.34;102082.09;675440;29;8426;-68
2022/03/09 01:35:39;;;;;;;0.60;0.60;;;;;;;3.95;53.33;102081.13;675096;29;16427;-68
2022/03/09 01:36:01;;;;;;;0.57;0.57;;;;;;;3.97;53.38;102087.22;674026;29;46508;-68
2022/03/09 01:36:22;;;;;;;0.50;0.50;;;;;;;4.01;53.33;102081.69;674265;29;7129;-68
2022/03/09 01:36:43;;;;;;;0.68;0.68;;;;;;;4.02;53.33;102088.75;674672;29;22489;-68
2022/03/09 01:37:05;;;;;;;0.70;0.70;;;;;;;4.04;53.33;102085.00;674530;29;22504;-68
2022/03/09 01:37:26;;;;;;;0.60;0.60;;;;;;;4.07;53.18;102092.81;675746;29;4970;-67
2022/03/09 01:37:47;;;;;;;0.60;0.60;;;;;;;4.09;53.08;102082.03;674942;29;22398;-67
2022/03/09 01:38:08;;;;;;;0.70;0.70;;;;;;;4.11;53.11;102088.16;675078;29;19329;-67
2022/03/09 01:38:30;;;;;;;0.60;0.60;;;;;;;4.10;53.22;102083.75;674956;29;22496;-67
2022/03/09 01:38:51;;;;;;;0.60;0.60;;;;;;;4.13;52.93;102088.88;674251;29;46404;-67
2022/03/09 01:39:12;;;;;;;0.70;0.70;;;;;;;4.13;52.86;102088.88;675007;29;21557;-68
2022/03/09 01:39:33;;;;;;;0.70;0.70;;;;;;;4.12;52.97;102081.81;673814;29;45347;-67
2022/03/09 01:39:56;;;;;;;0.60;0.60;;;;;;;4.12;52.89;102084.50;675111;29;11051;-68
2022/03/09 01:40:17;;;;;;;0.60;0.60;;;;;;;4.12;52.74;102089.84;673849;29;45268;-68
2022/03/09 01:40:38;;;;;;;0.50;0.50;;;;;;;4.12;52.86;102089.84;674838;29;23432;-68
2022/03/09 01:41:00;;;;;;;0.50;0.50;;;;;;;4.10;52.92;102089.09;675005;29;23385;-68
2022/03/09 01:41:21;;;;;;;0.60;0.60;;;;;;;4.12;52.80;102079.16;673901;29;27339;-68
2022/03/09 01:41:42;;;;;;;0.70;0.70;;;;;;;4.13;52.73;102088.88;674408;29;23492;-68
2022/03/09 01:42:04;;;;;;;0.70;0.70;;;;;;;4.09;52.81;102090.03;675036;29;22179;-67
2022/03/09 01:42:26;;;;;;;0.70;0.70;;;;;;;4.07;52.74;102086.63;673923;29;44163;-68
2022/03/09 01:42:47;;;;;;;0.63;0.63;;;;;;;4.04;52.69;102084.16;673666;29;46362;-67
2022/03/09 01:43:08;;;;;;;0.60;0.60;;;;;;;4.01;53.09;102087.03;675051;29;22405;-67